Time;durP1;ratioP1;P1;durP2;ratioP2;P2;SDS_P1;SDS_P2;PMS_P1;PMS_P2;Temp;Humidity;BMP_temperature;BMP_pressure;BME280_temperature;BME280_humidity;BME280_pressure;Samples;Min_cycle;Max_cycle;Signal;HPM_P1;HPM_P2
2024/01/07 00:01:47;;;;;;;25.27;11.63;;;-1.80;99.90;;;;;;4450111;28;657033;-77
2024/01/07 00:04:35;;;;;;;24.17;11.13;;;-1.80;99.90;;;;;;4420918;28;657887;-78
2024/01/07 00:07:22;;;;;;;19.27;9.07;;;-1.80;99.90;;;;;;4445036;28;657396;-77
2024/01/07 00:10:10;;;;;;;25.80;12.00;;;-1.80;99.90;;;;;;4445577;28;656555;-77
2024/01/07 00:12:59;;;;;;;17.38;8.00;;;-1.90;99.90;;;;;;4432988;28;657130;-77
2024/01/07 00:15:46;;;;;;;24.57;11.00;;;-1.90;99.90;;;;;;4435113;28;655564;-78
2024/01/07 00:18:34;;;;;;;26.40;11.40;;;-1.90;99.90;;;;;;4425981;28;656812;-77
2024/01/07 00:21:21;;;;;;;23.73;10.30;;;-2.00;99.90;;;;;;4454227;28;656368;-78
2024/01/07 00:24:08;;;;;;;21.60;10.17;;;-2.00;99.90;;;;;;4431310;28;656943;-77
2024/01/07 00:26:56;;;;;;;21.45;10.30;;;-2.10;99.90;;;;;;4448087;28;657420;-78
2024/01/07 00:29:44;;;;;;;19.37;9.50;;;-2.10;99.90;;;;;;4421642;28;656543;-78
2024/01/07 00:32:31;;;;;;;20.83;10.03;;;-2.10;99.90;;;;;;4453657;28;655298;-78
2024/01/07 00:35:19;;;;;;;18.43;8.73;;;-2.20;99.90;;;;;;4427612;28;656428;-78
2024/01/07 00:38:06;;;;;;;14.93;7.37;;;-2.20;99.90;;;;;;4451138;28;655183;-77
2024/01/07 00:40:53;;;;;;;20.50;10.63;;;-2.20;99.90;;;;;;4429934;28;655692;-77
2024/01/07 00:43:40;;;;;;;20.33;9.70;;;-2.20;99.90;;;;;;4445517;28;656792;-78
2024/01/07 00:46:29;;;;;;;22.30;9.73;;;-2.10;99.90;;;;;;4423236;28;655997;-77
2024/01/07 00:49:16;;;;;;;17.13;8.07;;;-2.20;99.90;;;;;;4446819;28;656283;-78
2024/01/07 00:52:05;;;;;;;24.80;8.47;;;-2.20;99.90;;;;;;4425130;28;655507;-77
2024/01/07 00:54:52;;;;;;;16.80;8.87;;;-2.10;99.90;;;;;;4447162;28;655398;-77
2024/01/07 00:57:39;;;;;;;20.60;9.33;;;-2.20;99.90;;;;;;4418700;28;655880;-77
2024/01/07 01:00:27;;;;;;;19.50;9.43;;;-2.20;99.90;;;;;;4447479;28;655397;-78
2024/01/07 01:03:16;;;;;;;10.73;5.90;;;-2.20;99.90;;;;;;4425917;28;656454;-77
2024/01/07 01:06:03;;;;;;;19.63;9.43;;;-2.30;99.90;;;;;;4427859;28;656178;-77
2024/01/07 01:08:50;;;;;;;13.83;6.97;;;-2.30;99.90;;;;;;4447753;28;655500;-78
2024/01/07 01:11:37;;;;;;;14.37;6.50;;;-2.30;99.90;;;;;;4431949;28;655276;-77
2024/01/07 01:14:25;;;;;;;16.57;7.97;;;-2.30;99.90;;;;;;4451418;28;655809;-78
2024/01/07 01:17:12;;;;;;;18.70;9.13;;;-2.30;99.90;;;;;;4446476;28;655552;-77
2024/01/07 01:20:01;;;;;;;14.07;7.23;;;-2.40;99.90;;;;;;4449598;28;655929;-78
2024/01/07 01:22:48;;;;;;;18.67;8.77;;;-2.40;99.90;;;;;;4429625;28;655450;-77
2024/01/07 01:25:35;;;;;;;17.23;8.00;;;-2.50;99.90;;;;;;4438335;28;655661;-78
2024/01/07 01:28:23;;;;;;;18.37;5.60;;;-2.50;99.90;;;;;;4426443;28;656472;-77
2024/01/07 01:31:13;;;;;;;18.57;8.03;;;-2.50;99.90;;;;;;4448816;28;656846;-78
2024/01/07 01:34:00;;;;;;;17.23;6.87;;;-2.50;99.90;;;;;;4425302;28;655692;-78
2024/01/07 01:36:50;;;;;;;15.67;6.67;;;-2.60;99.90;;;;;;4424051;28;655792;-77
2024/01/07 01:39:40;;;;;;;10.00;5.27;;;-2.60;99.90;;;;;;4430396;28;655376;-77
2024/01/07 01:42:27;;;;;;;17.97;7.70;;;-2.60;99.90;;;;;;4446664;28;655820;-77
2024/01/07 01:45:15;;;;;;;8.27;4.43;;;-2.70;99.90;;;;;;4449012;28;655900;-78
2024/01/07 01:48:02;;;;;;;8.30;4.60;;;-2.70;99.90;;;;;;4449620;28;654099;-78
2024/01/07 01:50:50;;;;;;;13.10;5.87;;;-2.70;99.90;;;;;;4449699;28;655600;-78
2024/01/07 01:53:38;;;;;;;18.63;8.80;;;-2.70;99.90;;;;;;4451281;28;655552;-78
2024/01/07 01:56:25;;;;;;;12.80;6.43;;;-2.70;99.90;;;;;;4430369;28;656693;-78
2024/01/07 01:59:13;;;;;;;15.63;7.40;;;-2.80;99.90;;;;;;4431767;28;656010;-78
2024/01/07 02:02:00;;;;;;;20.17;8.20;;;-2.80;99.90;;;;;;4446272;28;656670;-77
2024/01/07 02:04:47;;;;;;;21.42;7.75;;;-2.80;99.90;;;;;;4433779;28;655572;-77
2024/01/07 02:07:35;;;;;;;15.17;6.83;;;-2.80;99.90;;;;;;4443217;28;655765;-77
2024/01/07 02:10:23;;;;;;;11.00;4.90;;;-2.80;99.90;;;;;;4449604;28;654895;-78
2024/01/07 02:13:11;;;;;;;17.70;7.80;;;-2.90;99.90;;;;;;4416908;28;656679;-78
2024/01/07 02:15:58;;;;;;;17.77;8.20;;;-2.90;99.90;;;;;;4423418;28;656394;-77
2024/01/07 02:18:46;;;;;;;17.17;7.50;;;-2.90;99.90;;;;;;4444630;28;654741;-78
2024/01/07 02:21:33;;;;;;;15.73;7.25;;;-2.80;99.90;;;;;;4428035;28;656013;-78
2024/01/07 02:24:22;;;;;;;12.00;6.30;;;-2.80;99.90;;;;;;4439732;28;655923;-78
2024/01/07 02:27:09;;;;;;;13.90;7.00;;;-2.90;99.90;;;;;;4424788;28;655872;-77
2024/01/07 02:29:57;;;;;;;15.02;6.85;;;-2.90;99.90;;;;;;4447924;28;656818;-77
2024/01/07 02:32:44;;;;;;;13.40;6.93;;;-3.00;99.90;;;;;;4419266;28;655469;-78
2024/01/07 02:35:31;;;;;;;15.40;7.23;;;-3.00;99.90;;;;;;4447419;28;655412;-78
2024/01/07 02:38:18;;;;;;;15.17;6.53;;;-3.00;99.90;;;;;;4417464;28;655725;-77
2024/01/07 02:41:07;;;;;;;16.20;7.27;;;-3.00;99.90;;;;;;4452713;28;656101;-77
2024/01/07 02:43:54;;;;;;;18.77;6.33;;;-3.00;99.90;;;;;;4424832;28;657475;-78
2024/01/07 02:46:41;;;;;;;11.87;6.20;;;-3.00;99.90;;;;;;4446553;28;655423;-77
2024/01/07 02:49:29;;;;;;;9.88;4.15;;;-3.10;99.90;;;;;;4430721;28;655502;-77
2024/01/07 02:52:16;;;;;;;13.93;5.57;;;-3.10;99.90;;;;;;4450339;28;654479;-78
2024/01/07 02:55:04;;;;;;;8.33;3.63;;;-3.20;99.90;;;;;;4426287;28;655517;-77
2024/01/07 02:57:53;;;;;;;8.03;4.17;;;-3.20;99.90;;;;;;4447939;28;654553;-77
2024/01/07 03:00:40;;;;;;;10.80;4.60;;;-3.30;99.90;;;;;;4421408;28;655390;-77
2024/01/07 03:03:27;;;;;;;8.67;3.33;;;-3.40;99.90;;;;;;4443441;28;655637;-77
2024/01/07 03:06:15;;;;;;;13.27;6.10;;;-3.40;99.90;;;;;;4444071;28;654857;-77
2024/01/07 03:09:02;;;;;;;14.63;6.33;;;-3.50;99.90;;;;;;4446031;28;655314;-77
2024/01/07 03:11:49;;;;;;;10.18;4.95;;;-3.40;99.90;;;;;;4427083;28;655612;-77
2024/01/07 03:14:38;;;;;;;7.80;4.23;;;-3.50;99.90;;;;;;4446175;28;655720;-77
2024/01/07 03:17:25;;;;;;;9.30;4.67;;;-3.50;99.90;;;;;;4422875;28;654542;-77
2024/01/07 03:20:13;;;;;;;11.10;4.97;;;-3.40;99.90;;;;;;4425175;28;654464;-77
2024/01/07 03:23:01;;;;;;;8.43;3.43;;;-3.40;99.90;;;;;;4450670;28;657218;-77
2024/01/07 03:25:48;;;;;;;7.20;3.30;;;-3.50;99.90;;;;;;4422918;28;654118;-77
2024/01/07 03:28:35;;;;;;;9.73;4.43;;;-3.50;99.90;;;;;;4449792;28;654812;-78
2024/01/07 03:31:24;;;;;;;9.47;4.90;;;-3.50;99.90;;;;;;4430961;28;654830;-77
2024/01/07 03:34:11;;;;;;;8.07;4.43;;;-3.50;99.90;;;;;;4447775;28;655125;-76
2024/01/07 03:36:58;;;;;;;10.10;4.63;;;-3.60;99.90;;;;;;4426537;28;654808;-77
2024/01/07 03:39:46;;;;;;;12.20;6.27;;;-3.60;99.90;;;;;;4446062;28;656250;-77
2024/01/07 03:42:34;;;;;;;10.97;5.27;;;-3.70;99.90;;;;;;4422987;28;655904;-77
2024/01/07 03:45:21;;;;;;;9.00;4.67;;;-3.70;99.90;;;;;;4448819;28;655756;-77
2024/01/07 03:48:10;;;;;;;9.27;4.37;;;-3.70;99.90;;;;;;4432906;28;654362;-77
2024/01/07 03:50:57;;;;;;;10.93;4.67;;;-3.70;99.90;;;;;;4451956;28;654270;-77
2024/01/07 03:53:44;;;;;;;4.73;2.80;;;-3.70;99.90;;;;;;4431516;28;655727;-77
2024/01/07 03:56:31;;;;;;;12.80;5.10;;;-3.70;99.90;;;;;;4450362;28;654166;-77
2024/01/07 03:59:18;;;;;;;8.57;4.33;;;-3.80;99.90;;;;;;4428523;28;656013;-77
2024/01/07 04:02:06;;;;;;;12.57;5.40;;;-3.80;99.90;;;;;;4453475;28;655096;-77
2024/01/07 04:04:54;;;;;;;12.97;4.87;;;-3.80;99.90;;;;;;4426191;28;655714;-77
2024/01/07 04:07:41;;;;;;;7.80;3.80;;;-3.80;99.90;;;;;;4448816;28;655608;-77
2024/01/07 04:10:29;;;;;;;9.33;4.03;;;-3.80;99.90;;;;;;4426085;28;654604;-77
2024/01/07 04:13:16;;;;;;;14.93;6.90;;;-3.80;99.90;;;;;;4445756;28;654444;-77
2024/01/07 04:16:04;;;;;;;10.40;5.03;;;-3.90;99.90;;;;;;4422809;28;656506;-77
2024/01/07 04:18:51;;;;;;;9.37;4.70;;;-3.90;99.90;;;;;;4449574;28;656427;-77
2024/01/07 04:21:39;;;;;;;9.27;4.43;;;-3.90;99.90;;;;;;4420396;28;655177;-77
2024/01/07 04:24:27;;;;;;;8.60;4.20;;;-3.90;99.90;;;;;;4447753;28;654362;-77
2024/01/07 04:27:14;;;;;;;10.47;5.60;;;-3.90;99.90;;;;;;4420903;28;654482;-77
2024/01/07 04:30:01;;;;;;;10.27;3.80;;;-3.90;99.90;;;;;;4445059;28;655775;-77
2024/01/07 04:32:48;;;;;;;12.87;5.10;;;-4.00;99.90;;;;;;4421831;28;655888;-77
2024/01/07 04:35:36;;;;;;;14.23;2.67;;;-4.00;99.90;;;;;;4448686;28;655829;-77
2024/01/07 04:38:25;;;;;;;12.50;5.37;;;-4.00;99.90;;;;;;4415871;28;655651;-77
2024/01/07 04:41:13;;;;;;;12.30;4.78;;;-4.00;99.90;;;;;;4430215;28;655673;-77
2024/01/07 04:44:00;;;;;;;9.30;3.93;;;-3.90;99.90;;;;;;4440484;28;656132;-78
2024/01/07 04:46:48;;;;;;;7.50;3.37;;;-4.00;99.90;;;;;;4447026;28;654777;-77
2024/01/07 04:49:35;;;;;;;8.93;4.07;;;-4.00;99.90;;;;;;4447022;28;656708;-77
2024/01/07 04:52:23;;;;;;;13.67;3.93;;;-3.90;99.90;;;;;;4426456;28;654230;-77
2024/01/07 04:55:11;;;;;;;8.70;4.43;;;-3.90;99.90;;;;;;4443573;28;655995;-77
2024/01/07 04:57:59;;;;;;;11.73;5.07;;;-4.00;99.90;;;;;;4412822;28;654417;-77
2024/01/07 05:00:46;;;;;;;10.03;4.87;;;-4.00;99.90;;;;;;4446853;28;656297;-77
2024/01/07 05:03:33;;;;;;;7.03;2.60;;;-4.00;99.90;;;;;;4421817;28;656427;-78
2024/01/07 05:06:21;;;;;;;7.37;2.73;;;-4.00;99.90;;;;;;4446166;28;655428;-78
2024/01/07 05:09:08;;;;;;;12.67;4.43;;;-4.00;99.90;;;;;;4428611;28;654753;-78
2024/01/07 05:11:57;;;;;;;6.70;3.27;;;-4.00;99.90;;;;;;4444319;28;655933;-78
2024/01/07 05:14:46;;;;;;;10.33;4.73;;;-3.90;99.90;;;;;;4420170;28;655275;-78
2024/01/07 05:17:33;;;;;;;12.97;4.40;;;-3.90;99.90;;;;;;4421641;28;655807;-78
2024/01/07 05:20:20;;;;;;;5.77;3.50;;;-3.90;99.90;;;;;;4446102;28;655335;-78
2024/01/07 05:23:07;;;;;;;7.55;3.10;;;-4.00;99.90;;;;;;4424265;28;654789;-78
2024/01/07 05:25:55;;;;;;;6.37;3.10;;;-4.00;99.90;;;;;;4442188;28;655606;-78
2024/01/07 05:28:44;;;;;;;5.60;3.20;;;-4.00;99.90;;;;;;4452742;28;653910;-78
2024/01/07 05:31:31;;;;;;;11.98;4.45;;;-4.00;99.90;;;;;;4435957;28;654527;-79
2024/01/07 05:34:18;;;;;;;8.27;3.67;;;-4.00;99.90;;;;;;4421615;28;655884;-78
2024/01/07 05:37:06;;;;;;;7.90;3.83;;;-4.00;99.90;;;;;;4443090;28;655788;-79
2024/01/07 05:39:53;;;;;;;8.03;3.30;;;-4.10;99.90;;;;;;4423890;28;654748;-78
2024/01/07 05:42:40;;;;;;;8.20;3.63;;;-4.00;99.90;;;;;;4446311;28;654998;-79
2024/01/07 05:45:29;;;;;;;9.00;3.67;;;-4.10;99.90;;;;;;4428236;28;654622;-78
2024/01/07 05:48:16;;;;;;;11.33;4.57;;;-4.10;99.90;;;;;;4442517;28;654539;-77
2024/01/07 05:51:03;;;;;;;5.87;2.73;;;-4.10;99.90;;;;;;4425705;28;655604;-78
2024/01/07 05:53:50;;;;;;;1.80;1.10;;;-4.10;99.90;;;;;;4442265;28;655485;-78
2024/01/07 05:56:40;;;;;;;10.50;4.37;;;-4.10;99.90;;;;;;4425930;28;654611;-78
2024/01/07 05:59:28;;;;;;;7.03;2.97;;;-4.10;99.90;;;;;;4435998;28;655606;-78
2024/01/07 06:02:17;;;;;;;10.40;3.90;;;-4.10;99.90;;;;;;4444362;28;655643;-78
2024/01/07 06:05:04;;;;;;;7.23;3.53;;;-4.10;99.90;;;;;;4423109;28;656783;-78
2024/01/07 06:07:51;;;;;;;3.97;1.87;;;-4.10;99.90;;;;;;4447566;28;655766;-78
2024/01/07 06:10:38;;;;;;;6.73;3.40;;;-4.10;99.90;;;;;;4423392;28;655615;-78
2024/01/07 06:13:25;;;;;;;9.50;3.90;;;-4.20;99.90;;;;;;4446520;28;656260;-79
2024/01/07 06:16:13;;;;;;;7.97;3.50;;;-4.20;99.90;;;;;;4419059;28;655229;-77
2024/01/07 06:19:01;;;;;;;7.33;2.57;;;-4.20;99.90;;;;;;4438416;28;657362;-79
2024/01/07 06:21:49;;;;;;;5.33;2.90;;;-4.20;99.90;;;;;;4422742;28;655735;-79
2024/01/07 06:24:36;;;;;;;7.33;3.67;;;-4.20;99.90;;;;;;4444919;28;655674;-79
2024/01/07 06:27:23;;;;;;;9.90;4.27;;;-4.30;99.90;;;;;;4420340;28;655479;-77
2024/01/07 06:30:11;;;;;;;6.87;3.27;;;-4.30;99.90;;;;;;4441465;28;655635;-78
2024/01/07 06:32:58;;;;;;;7.93;3.60;;;-4.30;99.90;;;;;;4423877;28;655572;-78
2024/01/07 06:35:47;;;;;;;8.70;3.67;;;-4.30;99.90;;;;;;4440317;28;655808;-78
2024/01/07 06:38:34;;;;;;;7.97;3.87;;;-4.30;99.90;;;;;;4419389;28;655484;-78
2024/01/07 06:41:21;;;;;;;3.83;1.63;;;-4.30;99.90;;;;;;4447297;28;656229;-78
2024/01/07 06:44:09;;;;;;;8.43;3.67;;;-4.30;99.90;;;;;;4420681;28;655273;-78
2024/01/07 06:46:56;;;;;;;6.97;3.07;;;-4.30;99.90;;;;;;4440085;28;656437;-78
2024/01/07 06:49:43;;;;;;;7.43;3.37;;;-4.30;99.90;;;;;;4422544;28;655748;-78
2024/01/07 06:52:32;;;;;;;11.60;3.97;;;-4.20;99.90;;;;;;4444869;28;655882;-78
2024/01/07 06:55:19;;;;;;;9.13;3.17;;;-4.30;99.90;;;;;;4427888;28;656954;-78
2024/01/07 06:58:06;;;;;;;4.70;2.53;;;-4.20;99.90;;;;;;4448286;28;655195;-78
2024/01/07 07:00:53;;;;;;;9.53;4.10;;;-4.20;99.90;;;;;;4428165;28;655762;-78
2024/01/07 07:03:41;;;;;;;6.87;3.17;;;-4.30;99.90;;;;;;4448891;28;656269;-78
2024/01/07 07:06:28;;;;;;;9.83;3.63;;;-4.30;99.90;;;;;;4428660;28;655970;-78
2024/01/07 07:09:17;;;;;;;9.70;3.90;;;-4.30;99.90;;;;;;4445607;28;655687;-78
2024/01/07 07:12:05;;;;;;;6.90;3.23;;;-4.30;99.90;;;;;;4430167;28;655389;-78
2024/01/07 07:14:52;;;;;;;8.60;3.80;;;-4.30;99.90;;;;;;4426029;28;656318;-78
2024/01/07 07:17:40;;;;;;;10.73;3.37;;;-4.20;99.90;;;;;;4441342;28;656356;-77
2024/01/07 07:20:27;;;;;;;6.30;3.63;;;-4.20;99.90;;;;;;4429603;28;658595;-78
2024/01/07 07:23:15;;;;;;;6.23;2.30;;;-4.30;99.90;;;;;;4452427;28;656028;-78
2024/01/07 07:26:04;;;;;;;3.87;1.90;;;-4.20;99.90;;;;;;4440031;28;655054;-77
2024/01/07 07:28:51;;;;;;;8.50;3.70;;;-4.30;99.90;;;;;;4450683;28;655153;-79
2024/01/07 07:31:39;;;;;;;5.67;3.07;;;-4.20;99.90;;;;;;4427062;28;655518;-78
2024/01/07 07:34:26;;;;;;;9.40;4.43;;;-4.20;99.90;;;;;;4445682;28;655679;-78
2024/01/07 07:37:13;;;;;;;5.30;2.37;;;-4.20;99.90;;;;;;4421480;28;655491;-78
2024/01/07 07:40:01;;;;;;;6.63;3.35;;;-4.20;99.90;;;;;;4444672;28;656639;-78
2024/01/07 07:42:49;;;;;;;9.50;3.27;;;-4.20;99.90;;;;;;4419149;28;655447;-77
2024/01/07 07:45:37;;;;;;;7.37;3.20;;;-4.20;99.90;;;;;;4450165;28;655122;-78
2024/01/07 07:48:26;;;;;;;7.53;3.57;;;-4.20;99.90;;;;;;4428916;28;655928;-78
2024/01/07 07:51:13;;;;;;;5.20;2.70;;;-4.10;99.90;;;;;;4422557;28;656251;-77
2024/01/07 07:54:00;;;;;;;4.97;1.60;;;-4.20;99.90;;;;;;4444500;28;656630;-77
2024/01/07 07:56:47;;;;;;;4.63;2.23;;;-4.10;99.90;;;;;;4434828;28;655636;-77
2024/01/07 07:59:36;;;;;;;5.00;2.27;;;-4.10;99.90;;;;;;4448164;28;656688;-78
2024/01/07 08:02:23;;;;;;;12.27;4.03;;;-4.00;99.90;;;;;;4427801;28;655369;-78
2024/01/07 08:05:10;;;;;;;11.47;4.27;;;-4.00;99.90;;;;;;4441560;28;657208;-80
2024/01/07 08:07:58;;;;;;;7.40;2.90;;;-4.00;99.90;;;;;;4430496;28;657253;-78
2024/01/07 08:10:45;;;;;;;5.83;2.40;;;-4.00;99.90;;;;;;4449057;28;655932;-79
2024/01/07 08:13:32;;;;;;;7.77;3.47;;;-4.00;99.90;;;;;;4431709;28;655950;-79
2024/01/07 08:16:21;;;;;;;6.80;2.33;;;-4.00;99.90;;;;;;4448927;28;656406;-77
2024/01/07 08:19:08;;;;;;;11.60;4.27;;;-4.00;99.90;;;;;;4419971;28;655368;-78
2024/01/07 08:21:56;;;;;;;6.80;3.90;;;-4.00;99.90;;;;;;4445094;28;657423;-79
2024/01/07 08:24:43;;;;;;;9.60;3.43;;;-4.00;99.90;;;;;;4421932;28;655510;-80
2024/01/07 08:27:32;;;;;;;7.80;3.47;;;-4.00;99.90;;;;;;4448421;28;655247;-78
2024/01/07 08:30:19;;;;;;;4.27;2.07;;;-4.00;99.90;;;;;;4416422;28;657127;-78
2024/01/07 08:33:08;;;;;;;6.23;2.73;;;-3.90;99.90;;;;;;4448459;28;654777;-79
2024/01/07 08:35:55;;;;;;;8.07;3.13;;;-3.90;99.90;;;;;;4422298;28;656258;-77
2024/01/07 08:38:42;;;;;;;6.60;2.90;;;-3.90;99.90;;;;;;4429561;28;656115;-77
2024/01/07 08:41:30;;;;;;;4.37;2.40;;;-3.90;99.90;;;;;;4446906;28;656233;-78
2024/01/07 08:44:17;;;;;;;7.37;3.87;;;-3.90;99.90;;;;;;4446801;28;655080;-80
2024/01/07 08:47:04;;;;;;;8.13;4.00;;;-3.90;99.90;;;;;;4424728;28;656685;-80
2024/01/07 08:49:54;;;;;;;10.85;4.03;;;-3.80;99.90;;;;;;4443986;28;655283;-79
2024/01/07 08:52:41;;;;;;;7.17;3.17;;;-3.80;99.90;;;;;;4422909;28;656725;-79
2024/01/07 08:55:28;;;;;;;9.17;4.10;;;-3.80;99.90;;;;;;4424435;28;655671;-78
2024/01/07 08:58:16;;;;;;;7.17;2.93;;;-3.80;99.90;;;;;;4442921;28;656129;-79
2024/01/07 09:01:04;;;;;;;9.00;4.00;;;-3.70;99.90;;;;;;4423089;28;657772;-80
2024/01/07 09:03:51;;;;;;;10.97;4.83;;;-3.80;99.90;;;;;;4442102;28;655758;-80
2024/01/07 09:06:40;;;;;;;7.87;3.03;;;-3.80;99.90;;;;;;4424515;28;656619;-79
2024/01/07 09:09:27;;;;;;;13.03;4.70;;;-3.70;99.90;;;;;;4424358;28;656618;-76
2024/01/07 09:12:15;;;;;;;10.73;3.67;;;-3.60;99.90;;;;;;4436483;28;657004;-77
2024/01/07 09:15:02;;;;;;;9.00;4.07;;;-3.50;99.90;;;;;;4418622;28;655555;-77
2024/01/07 09:17:49;;;;;;;7.97;3.57;;;-3.40;99.90;;;;;;4380302;28;656082;-79
2024/01/07 09:20:36;;;;;;;9.07;4.57;;;-3.40;99.90;;;;;;4406293;28;655567;-77
2024/01/07 09:23:25;;;;;;;5.40;2.70;;;-3.30;99.90;;;;;;4375754;28;655605;-77
2024/01/07 09:26:12;;;;;;;10.73;4.50;;;-3.20;99.90;;;;;;4386257;28;655803;-77
2024/01/07 09:29:01;;;;;;;11.97;3.37;;;-3.20;99.90;;;;;;4377259;28;656852;-76
2024/01/07 09:31:48;;;;;;;8.73;3.70;;;-3.20;99.90;;;;;;4346948;28;656646;-76
2024/01/07 09:34:35;;;;;;;15.73;4.90;;;-3.20;99.90;;;;;;4368555;28;655910;-77
2024/01/07 09:37:22;;;;;;;11.83;4.43;;;-3.10;99.90;;;;;;4429322;28;657082;-77
2024/01/07 09:40:12;;;;;;;11.93;4.17;;;-3.10;99.90;;;;;;4445220;28;657385;-77
2024/01/07 09:43:00;;;;;;;9.40;3.13;;;-3.10;99.90;;;;;;4419995;28;656860;-79
2024/01/07 09:45:47;;;;;;;10.87;5.00;;;-3.30;99.90;;;;;;4444232;28;655817;-79
2024/01/07 09:48:34;;;;;;;10.18;4.35;;;-3.20;99.90;;;;;;4420851;28;657347;-80
2024/01/07 09:51:23;;;;;;;7.20;3.20;;;-3.10;99.90;;;;;;4446082;28;656855;-79
2024/01/07 09:54:14;;;;;;;9.93;4.30;;;-3.10;99.90;;;;;;4419434;28;655648;-80
2024/01/07 09:57:03;;;;;;;6.63;3.23;;;-3.10;99.90;;;;;;4423653;28;655865;-79
2024/01/07 09:59:50;;;;;;;9.73;3.80;;;-3.10;99.90;;;;;;4418492;28;655973;-81
2024/01/07 10:02:40;;;;;;;13.02;5.35;;;-3.10;99.90;;;;;;4427254;28;655854;-78
2024/01/07 10:05:28;;;;;;;10.70;4.33;;;-3.00;99.90;;;;;;4420667;28;656259;-79
2024/01/07 10:08:15;;;;;;;8.73;4.37;;;-2.90;99.90;;;;;;4438836;28;658314;-81
2024/01/07 10:11:04;;;;;;;8.53;3.43;;;-3.00;99.90;;;;;;4437868;28;655587;-77
2024/01/07 10:13:52;;;;;;;16.33;5.17;;;-3.10;99.90;;;;;;4437040;28;655803;-78
2024/01/07 10:16:40;;;;;;;11.80;5.20;;;-3.00;99.90;;;;;;4411181;28;657238;-80
2024/01/07 10:19:27;;;;;;;8.07;3.67;;;-2.90;99.90;;;;;;4439718;28;656463;-77
2024/01/07 10:22:15;;;;;;;7.10;2.70;;;-2.80;99.90;;;;;;4453110;28;656353;-81
2024/01/07 10:25:03;;;;;;;11.70;5.03;;;-2.90;99.90;;;;;;4424072;28;656023;-79
2024/01/07 10:27:50;;;;;;;10.87;3.80;;;-2.80;99.90;;;;;;4439845;28;657086;-79
2024/01/07 10:30:41;;;;;;;11.57;4.87;;;-2.80;99.90;;;;;;4436427;28;656743;-78
2024/01/07 10:33:32;;;;;;;9.13;4.10;;;-2.80;99.90;;;;;;4420708;28;656648;-80
2024/01/07 10:36:19;;;;;;;6.73;2.73;;;-2.80;99.90;;;;;;4432778;28;655373;-81
2024/01/07 10:39:06;;;;;;;7.50;2.63;;;-2.80;99.90;;;;;;4448593;28;655633;-80
2024/01/07 10:41:57;;;;;;;11.87;4.27;;;-2.90;99.90;;;;;;4423610;28;655990;-79
2024/01/07 10:44:44;;;;;;;12.37;5.23;;;-2.90;99.90;;;;;;4422314;28;656511;-81
2024/01/07 10:47:32;;;;;;;11.13;4.73;;;-2.90;99.90;;;;;;4448237;28;656715;-80
2024/01/07 10:50:20;;;;;;;18.37;5.50;;;-2.60;99.90;;;;;;4409195;28;656679;-80
2024/01/07 10:53:08;;;;;;;12.50;5.27;;;-2.70;99.90;;;;;;4430376;28;657097;-79
2024/01/07 10:56:00;;;;;;;8.37;3.47;;;-2.50;99.90;;;;;;4442130;28;657669;-81
2024/01/07 10:58:48;;;;;;;9.33;4.23;;;-2.60;99.90;;;;;;4404668;28;655838;-77
2024/01/07 11:01:35;;;;;;;7.43;3.63;;;-2.50;99.90;;;;;;4440738;28;656497;-80
2024/01/07 11:04:28;;;;;;;6.80;3.30;;;-2.40;99.90;;;;;;4438667;28;656609;-78
2024/01/07 11:07:19;;;;;;;10.43;4.70;;;-2.40;99.90;;;;;;4425706;28;656477;-81
2024/01/07 11:10:09;;;;;;;9.80;4.07;;;-2.60;99.90;;;;;;4422065;28;656563;-80
2024/01/07 11:12:58;;;;;;;15.17;5.77;;;-2.70;99.90;;;;;;4428965;28;655819;-79
2024/01/07 11:15:54;;;;;;;8.83;2.83;;;-2.60;99.90;;;;;;4421786;28;657024;-80
2024/01/07 11:18:49;;;;;;;11.50;5.13;;;-2.60;99.90;;;;;;4423297;28;655692;-80
2024/01/07 11:21:38;;;;;;;13.50;5.87;;;-2.50;99.90;;;;;;4424226;28;657107;-80
2024/01/07 11:24:41;;;;;;;14.90;5.17;;;-2.40;99.90;;;;;;4416208;28;657385;-78
2024/01/07 11:27:30;;;;;;;12.60;5.53;;;-2.40;99.90;;;;;;4406288;28;656633;-80
2024/01/07 11:30:19;;;;;;;16.27;5.60;;;-2.40;99.90;;;;;;4429653;28;657134;-79
2024/01/07 11:33:07;;;;;;;14.37;5.90;;;-2.30;99.90;;;;;;4443658;28;656530;-81
2024/01/07 11:35:57;;;;;;;12.90;5.00;;;-2.40;99.90;;;;;;4424921;28;656799;-80
2024/01/07 11:38:46;;;;;;;11.85;4.00;;;-2.30;99.90;;;;;;4435138;28;656960;-80
2024/01/07 11:41:34;;;;;;;9.75;3.65;;;-2.30;99.90;;;;;;4427785;28;656738;-80
2024/01/07 11:44:22;;;;;;;16.30;4.90;;;-2.20;99.90;;;;;;4448057;28;656160;-80
2024/01/07 11:47:09;;;;;;;10.30;3.90;;;-2.40;99.90;;;;;;4431338;28;656937;-80
2024/01/07 11:49:56;;;;;;;13.97;5.70;;;-2.60;99.90;;;;;;4441810;28;658586;-80
2024/01/07 11:52:43;;;;;;;12.53;5.00;;;-2.50;99.90;;;;;;4431678;28;656958;-80
2024/01/07 11:55:32;;;;;;;13.77;5.30;;;-2.40;99.90;;;;;;4453848;28;656567;-80
2024/01/07 11:58:19;;;;;;;12.37;4.40;;;-2.40;99.90;;;;;;4426383;28;656576;-78
2024/01/07 12:01:07;;;;;;;10.57;4.70;;;-2.30;99.90;;;;;;4439774;28;656242;-79
2024/01/07 12:03:54;;;;;;;13.90;6.17;;;-2.60;99.90;;;;;;4426453;28;656756;-80
2024/01/07 12:06:41;;;;;;;15.53;6.17;;;-2.60;99.90;;;;;;4446323;28;656651;-80
2024/01/07 12:09:28;;;;;;;15.77;6.30;;;-2.40;99.90;;;;;;4431470;28;657255;-80
2024/01/07 12:12:17;;;;;;;9.80;4.50;;;-2.40;99.90;;;;;;4452540;28;657659;-80
2024/01/07 12:15:05;;;;;;;9.80;4.37;;;-2.50;99.90;;;;;;4423899;28;656440;-80
2024/01/07 12:17:59;;;;;;;10.37;5.53;;;-2.50;99.90;;;;;;4436299;28;655659;-77
2024/01/07 12:20:56;;;;;;;3.77;2.13;;;-2.70;99.90;;;;;;4421138;28;656621;-79
2024/01/07 12:23:43;;;;;;;11.07;4.23;;;-2.70;99.90;;;;;;4429193;28;655289;-76
2024/01/07 12:26:32;;;;;;;11.37;3.63;;;-2.80;99.90;;;;;;4453475;28;656270;-81
2024/01/07 12:29:22;;;;;;;14.27;6.00;;;-2.80;99.90;;;;;;4427302;28;656797;-77
2024/01/07 12:32:10;;;;;;;9.57;4.10;;;-2.90;99.90;;;;;;4425559;28;657280;-80
2024/01/07 12:34:59;;;;;;;11.77;5.07;;;-2.90;99.90;;;;;;4442539;28;655597;-77
2024/01/07 12:37:46;;;;;;;11.13;4.90;;;-2.80;99.90;;;;;;4442764;28;656872;-80
2024/01/07 12:40:34;;;;;;;5.60;2.80;;;-2.80;99.90;;;;;;4420443;28;657958;-77
2024/01/07 12:43:22;;;;;;;9.10;4.50;;;-2.80;99.90;;;;;;4439755;28;655730;-81
2024/01/07 12:46:10;;;;;;;12.67;5.87;;;-3.10;99.90;;;;;;4422524;28;656168;-81
2024/01/07 12:48:58;;;;;;;14.37;5.93;;;-3.00;99.90;;;;;;4425220;28;657247;-80
2024/01/07 12:51:45;;;;;;;12.90;5.37;;;-3.00;99.90;;;;;;4437488;28;657861;-79
2024/01/07 12:54:33;;;;;;;10.80;4.87;;;-3.00;99.90;;;;;;4439160;28;656823;-78
2024/01/07 12:57:20;;;;;;;12.57;5.00;;;-3.10;99.90;;;;;;4449182;28;657526;-80
2024/01/07 13:00:09;;;;;;;14.53;6.03;;;-3.10;99.90;;;;;;4424753;28;656550;-78
2024/01/07 13:02:58;;;;;;;10.13;4.90;;;-3.00;99.90;;;;;;4448542;28;656456;-80
2024/01/07 13:05:45;;;;;;;10.27;4.30;;;-3.10;99.90;;;;;;4417120;28;657659;-80
2024/01/07 13:08:33;;;;;;;11.23;3.73;;;-3.30;99.90;;;;;;4424806;28;657107;-79
2024/01/07 13:11:20;;;;;;;18.07;6.47;;;-3.40;99.90;;;;;;4437797;28;657216;-79
2024/01/07 13:14:08;;;;;;;11.20;4.57;;;-3.40;99.90;;;;;;4445357;28;656833;-78
2024/01/07 13:16:55;;;;;;;14.80;6.15;;;-3.60;99.90;;;;;;4449747;28;657053;-81
2024/01/07 13:19:44;;;;;;;16.92;6.10;;;-3.70;99.90;;;;;;4423696;28;656984;-78
2024/01/07 13:22:31;;;;;;;15.83;6.37;;;-3.70;99.90;;;;;;4441761;28;657011;-80
2024/01/07 13:25:18;;;;;;;11.77;3.40;;;-3.50;99.90;;;;;;4413252;28;657346;-81
2024/01/07 13:28:10;;;;;;;14.13;6.33;;;-3.60;99.90;;;;;;4438503;28;658065;-80
2024/01/07 13:30:57;;;;;;;11.60;5.03;;;-3.70;99.90;;;;;;4405152;28;656806;-77
2024/01/07 13:33:45;;;;;;;18.43;7.50;;;-3.60;99.90;;;;;;4443990;28;657069;-79
2024/01/07 13:36:34;;;;;;;12.83;6.07;;;-3.60;99.90;;;;;;4424045;28;656659;-81
2024/01/07 13:39:22;;;;;;;16.80;6.80;;;-3.70;99.90;;;;;;4440214;28;656717;-81
2024/01/07 13:42:09;;;;;;;13.30;6.57;;;-3.80;99.90;;;;;;4422444;28;656165;-81
2024/01/07 13:44:56;;;;;;;10.70;5.03;;;-3.80;99.90;;;;;;4438938;28;656099;-80
2024/01/07 13:47:43;;;;;;;17.23;7.47;;;-3.80;99.90;;;;;;4421089;28;656604;-77
2024/01/07 13:50:30;;;;;;;23.77;9.50;;;-3.80;99.90;;;;;;4442152;28;656570;-82
2024/01/07 13:53:19;;;;;;;20.63;7.65;;;-3.80;99.90;;;;;;4421803;28;656588;-77
2024/01/07 13:56:07;;;;;;;18.90;9.03;;;-3.90;99.90;;;;;;4441647;28;656576;-81
2024/01/07 13:58:54;;;;;;;20.27;7.93;;;-4.00;99.90;;;;;;4413853;28;657691;-80
2024/01/07 14:01:43;;;;;;;15.87;5.67;;;-4.10;99.90;;;;;;4421623;28;656797;-81
2024/01/07 14:04:31;;;;;;;19.17;6.67;;;-4.10;99.90;;;;;;4440526;28;656089;-81
2024/01/07 14:07:18;;;;;;;20.03;7.03;;;-4.20;99.90;;;;;;4423197;28;656558;-78
2024/01/07 14:10:08;;;;;;;19.23;7.93;;;-4.30;99.90;;;;;;4442261;28;656035;-80
2024/01/07 14:12:55;;;;;;;21.07;7.80;;;-4.30;99.90;;;;;;4423601;28;656837;-81
2024/01/07 14:15:43;;;;;;;19.63;7.97;;;-4.30;99.90;;;;;;4420528;28;656346;-77